Time;durP1;ratioP1;P1;durP2;ratioP2;P2;SDS_P1;SDS_P2;PMS_P1;PMS_P2;Temp;Humidity;BMP_temperature;BMP_pressure;BME280_temperature;BME280_humidity;BME280_pressure;Samples;Min_cycle;Max_cycle;Signal;HPM_P1;HPM_P2
2022/09/05 00:04:12;;;;;;;6.87;4.87;;;;;;;14.50;68.70;101003.53;30729154;28;96823;-61
2022/09/05 00:19:24;;;;;;;7.13;5.10;;;;;;;14.51;69.18;101008.72;30749678;28;97239;-61
2022/09/05 00:34:44;;;;;;;8.37;4.77;;;;;;;14.65;69.20;101014.38;30748112;28;96696;-61
2022/09/05 00:49:52;;;;;;;7.67;5.27;;;;;;;14.67;69.26;101012.38;30746283;28;97484;-61
2022/09/05 01:05:30;;;;;;;7.83;5.03;;;;;;;14.63;69.32;101008.38;30745676;28;97325;-61
2022/09/05 01:20:53;;;;;;;8.13;5.33;;;;;;;14.51;69.68;101007.91;30743522;28;97492;-62
2022/09/05 01:36:22;;;;;;;8.87;5.57;;;;;;;14.37;69.52;101022.88;30738974;28;96857;-61
2022/09/05 01:51:44;;;;;;;9.17;5.67;;;;;;;14.29;70.03;101023.75;30738376;28;97566;-62
2022/09/05 02:07:01;;;;;;;8.67;6.10;;;;;;;14.29;69.89;101025.59;30739502;28;96688;-61
2022/09/05 02:22:09;;;;;;;8.83;6.27;;;;;;;14.18;69.80;101029.50;30738122;28;96701;-61
2022/09/05 02:37:13;;;;;;;9.53;5.97;;;;;;;14.06;70.01;101037.06;30736287;28;97493;-61
2022/09/05 02:52:18;;;;;;;8.47;6.67;;;;;;;13.91;70.28;101036.94;30733380;28;96657;-61
2022/09/05 03:07:36;;;;;;;8.97;6.27;;;;;;;13.68;70.60;101032.31;30733621;28;96689;-62
2022/09/05 03:22:36;;;;;;;10.27;6.47;;;;;;;13.42;70.81;101035.16;30732377;28;97321;-62
2022/09/05 03:37:47;;;;;;;8.48;6.65;;;;;;;13.18;71.45;101055.53;30727656;28;96832;-62
2022/09/05 03:53:22;;;;;;;7.80;7.00;;;;;;;13.27;72.12;101068.94;30728808;28;97532;-62
2022/09/05 04:08:23;;;;;;;10.03;6.97;;;;;;;13.31;71.98;101070.25;30741248;28;97303;-62
2022/09/05 04:23:50;;;;;;;7.13;6.40;;;;;;;13.43;71.90;101082.34;30743879;28;96715;-62
2022/09/05 04:39:26;;;;;;;10.67;7.17;;;;;;;13.58;71.82;101097.75;30763700;28;98144;-60
2022/09/05 04:54:51;;;;;;;10.43;6.23;;;;;;;13.69;71.75;101108.09;30876320;28;96822;-61
2022/09/05 05:09:55;;;;;;;7.43;6.13;;;;;;;14.11;71.18;101120.44;30844700;28;97830;-60
2022/09/05 05:24:56;;;;;;;10.53;6.80;;;;;;;14.48;70.84;101118.16;30840324;28;98313;-60
2022/09/05 05:40:18;;;;;;;8.10;6.83;;;;;;;14.99;70.39;101129.34;30849697;28;97798;-60
2022/09/05 05:55:40;;;;;;;9.47;6.47;;;;;;;15.78;69.35;101132.81;30864101;28;97163;-60
2022/09/05 06:11:11;;;;;;;8.67;5.23;;;;;;;16.37;67.67;101140.97;30793783;28;96738;-60
2022/09/05 06:26:30;;;;;;;8.17;5.43;;;;;;;16.79;66.40;101157.47;30849726;28;96669;-61
2022/09/05 06:41:57;;;;;;;7.90;4.83;;;;;;;17.58;64.15;101156.72;30848562;28;96685;-60
2022/09/05 06:57:40;;;;;;;7.80;5.47;;;;;;;18.48;61.70;101172.38;30862989;28;96787;-59
2022/09/05 07:12:49;;;;;;;7.03;4.17;;;;;;;19.58;59.13;101185.88;30820696;28;96783;-61
2022/09/05 07:28:05;;;;;;;5.03;3.90;;;;;;;21.22;56.04;101181.66;30832835;28;98701;-59
2022/09/05 07:43:07;;;;;;;5.17;3.40;;;;;;;23.01;51.34;101195.75;30860081;28;96974;-61
2022/09/05 07:58:14;;;;;;;6.87;3.67;;;;;;;23.69;47.76;101202.75;30862599;28;97061;-61
2022/09/05 08:13:24;;;;;;;6.13;3.30;;;;;;;24.59;45.15;101191.78;30807157;28;97208;-60
2022/09/05 08:28:54;;;;;;;6.47;3.07;;;;;;;25.19;42.50;101190.56;30833237;28;96853;-61
2022/09/05 08:43:54;;;;;;;;;;;;;;;26.23;40.36;101172.19;30847990;28;100169;-62
2022/09/05 08:59:19;;;;;;;4.70;3.22;;;;;;;26.91;37.09;101165.66;30881155;28;97207;-61
2022/09/05 09:14:42;;;;;;;6.10;2.63;;;;;;;36.48;24.16;101143.94;30856250;28;98713;-62
2022/09/05 09:29:43;;;;;;;4.23;2.40;;;;;;;40.38;18.39;101138.69;30893545;28;97776;-61
2022/09/05 09:44:47;;;;;;;5.65;2.50;;;;;;;42.60;16.08;101135.78;30855677;28;97131;-62
2022/09/05 09:59:47;;;;;;;12.43;2.30;;;;;;;43.54;14.30;101143.25;30848287;28;97334;-62
2022/09/05 10:15:15;;;;;;;7.18;2.47;;;;;;;44.20;13.57;101129.13;30807224;28;97251;-61
2022/09/05 10:30:22;;;;;;;3.43;2.40;;;;;;;41.32;15.25;101121.84;30804588;28;96893;-64
2022/09/05 10:45:45;;;;;;;2.43;1.80;;;;;;;41.41;15.30;101100.16;30849944;28;98210;-63
2022/09/05 11:01:05;;;;;;;5.60;2.10;;;;;;;47.14;10.88;101095.41;30817453;28;97139;-62
2022/09/05 11:16:17;;;;;;;2.60;1.80;;;;;;;47.92;10.14;101081.69;30807440;28;97591;-62
2022/09/05 11:31:26;;;;;;;4.83;1.73;;;;;;;48.39;9.76;101071.03;30827967;28;97413;-62
2022/09/05 11:46:33;;;;;;;2.37;1.77;;;;;;;47.67;10.09;101062.75;30815424;28;96877;-62
2022/09/05 12:02:11;;;;;;;4.27;1.83;;;;;;;42.00;13.50;101055.66;30806972;28;97489;-64
2022/09/05 12:17:32;;;;;;;6.53;2.30;;;;;;;34.23;19.27;101047.63;30841988;28;97361;-61
2022/09/05 12:32:48;;;;;;;3.47;2.23;;;;;;;33.48;20.82;101039.44;30885245;28;97524;-61
2022/09/05 12:48:07;;;;;;;3.13;2.20;;;;;;;32.39;21.80;101031.22;30977593;28;98010;-61
2022/09/05 13:03:20;;;;;;;5.30;2.13;;;;;;;31.18;23.36;101020.16;30867621;28;97341;-62
2022/09/05 13:18:29;;;;;;;3.17;2.40;;;;;;;30.94;23.56;101009.88;30893709;28;97380;-63
2022/09/05 13:33:44;;;;;;;4.80;2.33;;;;;;;30.11;25.37;100997.75;30913971;28;97527;-63
2022/09/05 13:49:00;;;;;;;4.17;2.53;;;;;;;29.65;25.87;100991.31;30909787;28;97291;-63
2022/09/05 14:04:26;;;;;;;5.00;2.40;;;;;;;28.94;26.88;100979.31;30910660;28;97453;-62
2022/09/05 14:35:30;;;;;;;3.53;2.30;;;;;;;26.75;29.30;100959.69;30816719;28;98142;-64
2022/09/05 14:50:59;;;;;;;5.10;2.30;;;;;;;25.72;30.81;100944.88;30755148;28;98042;-63
2022/09/05 15:05:59;;;;;;;5.30;2.40;;;;;;;25.46;31.28;100933.63;30796778;28;97190;-62
2022/09/05 15:21:26;;;;;;;3.63;2.30;;;;;;;25.22;32.09;100935.69;30791604;28;96821;-62
2022/09/05 15:36:32;;;;;;;4.50;2.50;;;;;;;24.47;33.16;100923.03;30734337;28;97298;-61
2022/09/05 15:51:39;;;;;;;5.03;2.63;;;;;;;23.61;34.35;100926.50;30717777;28;96955;-63
2022/09/05 16:06:48;;;;;;;2.97;2.10;;;;;;;22.94;35.38;100916.81;30742269;28;96797;-60
2022/09/05 16:21:51;;;;;;;9.73;2.67;;;;;;;22.45;36.63;100914.25;30751391;28;96847;-62
2022/09/05 16:36:59;;;;;;;14.80;2.73;;;;;;;21.92;38.35;100910.34;30792532;28;97609;-60
2022/09/05 16:52:05;;;;;;;4.27;2.10;;;;;;;21.35;39.40;100915.16;30797330;28;96906;-60
2022/09/05 17:07:12;;;;;;;3.33;2.23;;;;;;;20.74;40.45;100904.88;30801826;28;97318;-61
2022/09/05 17:22:32;;;;;;;5.87;2.10;;;;;;;20.15;41.69;100901.50;30789297;28;97285;-61
2022/09/05 17:37:51;;;;;;;4.70;2.40;;;;;;;19.45;43.10;100910.22;30771764;28;97202;-61
2022/09/05 17:53:08;;;;;;;6.73;2.27;;;;;;;18.85;44.24;100918.38;30790129;28;96751;-61
2022/09/05 18:08:09;;;;;;;12.47;5.07;;;;;;;18.37;45.47;100928.28;30839355;28;96800;-61
2022/09/05 18:23:19;;;;;;;5.28;2.97;;;;;;;17.95;46.61;100932.91;30857752;28;97474;-61
2022/09/05 18:38:25;;;;;;;6.50;3.13;;;;;;;17.58;47.47;100935.81;30856783;28;96779;-61
2022/09/05 18:53:29;;;;;;;7.57;3.90;;;;;;;17.19;48.58;100929.13;30813489;28;97047;-61
2022/09/05 19:08:41;;;;;;;14.90;4.27;;;;;;;16.81;49.08;100926.69;30787778;28;96946;-60
2022/09/05 19:23:53;;;;;;;6.17;3.27;;;;;;;16.48;49.85;100932.59;30785297;28;97388;-61
2022/09/05 19:38:55;;;;;;;9.53;3.53;;;;;;;16.16;50.32;100936.63;30761257;28;97507;-61
2022/09/05 19:53:56;;;;;;;5.80;3.50;;;;;;;15.84;50.80;100923.41;30741557;28;96994;-60
2022/09/05 20:09:08;;;;;;;7.77;3.30;;;;;;;15.53;51.29;100929.78;30743437;28;98264;-60
2022/09/05 20:24:09;;;;;;;7.63;3.13;;;;;;;15.30;51.94;100924.47;30742454;28;96985;-60
2022/09/05 20:39:13;;;;;;;5.13;2.95;;;;;;;15.08;51.67;100934.25;30810953;28;97504;-61
2022/09/05 20:54:15;;;;;;;7.60;2.70;;;;;;;14.92;51.92;100919.13;30807235;28;97448;-61
2022/09/05 21:09:21;;;;;;;5.10;2.50;;;;;;;14.72;52.30;100916.09;30742925;28;97309;-61
2022/09/05 21:24:23;;;;;;;7.93;2.77;;;;;;;14.50;52.61;100915.06;30742733;28;97661;-61
2022/09/05 21:39:27;;;;;;;7.37;2.70;;;;;;;14.37;52.72;100919.16;30741245;28;96811;-59
2022/09/05 21:54:28;;;;;;;6.37;2.67;;;;;;;14.39;52.79;100929.72;30740100;28;96887;-60
2022/09/05 22:09:29;;;;;;;3.90;2.47;;;;;;;14.50;52.60;100915.06;30739976;28;96740;-59
2022/09/05 22:24:33;;;;;;;6.53;2.13;;;;;;;14.42;52.59;100913.28;30738404;28;97226;-59
2022/09/05 22:39:33;;;;;;;4.63;2.23;;;;;;;14.36;52.81;100916.66;30736942;28;96876;-59
2022/09/05 22:54:34;;;;;;;3.15;1.98;;;;;;;14.63;52.29;100919.88;30735712;28;96669;-61
2022/09/05 23:09:35;;;;;;;4.50;2.15;;;;;;;14.80;51.81;100910.66;30733452;28;96784;-59
2022/09/05 23:24:35;;;;;;;5.32;1.95;;;;;;;14.81;51.67;100890.88;30732964;28;97496;-61
2022/09/05 23:39:35;;;;;;;2.60;1.40;;;;;;;14.85;51.77;100889.50;30732403;28;96647;-61
2022/09/05 23:54:36;;;;;;;3.50;1.75;;;;;;;14.92;51.47;100886.94;30730218;28;117581;-59
